Time;durP1;ratioP1;P1;durP2;ratioP2;P2;SDS_P1;SDS_P2;PMS_P1;PMS_P2;Temp;Humidity;BMP_temperature;BMP_pressure;BME280_temperature;BME280_humidity;BME280_pressure;Samples;Min_cycle;Max_cycle;Signal;HPM_P1;HPM_P2
2023/11/02 00:01:27;;;;;;;4.32;0.60;;;9.70;99.90;;;;;;4995101;28;20525;-70
2023/11/02 00:03:52;;;;;;;4.95;1.20;;;9.70;99.90;;;;;;4991146;28;20898;-69
2023/11/02 00:06:20;;;;;;;5.60;1.10;;;9.70;99.90;;;;;;4994940;28;20435;-69
2023/11/02 00:08:54;;;;;;;4.28;0.60;;;9.70;99.90;;;;;;5010221;28;20757;-69
2023/11/02 00:11:45;;;;;;;8.70;0.90;;;9.70;99.90;;;;;;5009875;28;20802;-69
2023/11/02 00:14:11;;;;;;;4.50;0.80;;;9.50;99.90;;;;;;5009902;28;20768;-69
2023/11/02 00:16:36;;;;;;;4.50;0.90;;;9.40;99.90;;;;;;5009116;28;20413;-69
2023/11/02 00:19:03;;;;;;;4.38;0.98;;;9.30;99.90;;;;;;5009543;28;20479;-69
2023/11/02 00:21:28;;;;;;;4.32;0.65;;;9.40;99.90;;;;;;5007626;28;20401;-69
2023/11/02 00:23:54;;;;;;;4.70;0.90;;;9.40;99.90;;;;;;5009637;28;20443;-69
2023/11/02 00:26:20;;;;;;;4.90;0.60;;;9.20;99.90;;;;;;5003452;28;20418;-69
2023/11/02 00:28:45;;;;;;;4.85;0.80;;;9.10;99.90;;;;;;4988956;28;20426;-69
2023/11/02 00:31:11;;;;;;;5.50;0.80;;;9.10;99.90;;;;;;4988982;28;20425;-69
2023/11/02 00:33:37;;;;;;;4.40;0.60;;;9.20;99.90;;;;;;4989278;28;20434;-69
2023/11/02 00:36:03;;;;;;;4.40;0.70;;;9.20;99.90;;;;;;4989346;28;20418;-69
2023/11/02 00:38:29;;;;;;;4.18;0.70;;;9.20;99.90;;;;;;4989622;28;20509;-70
2023/11/02 00:40:57;;;;;;;4.50;0.80;;;9.30;99.90;;;;;;4991487;28;20397;-69
2023/11/02 00:43:23;;;;;;;6.10;0.80;;;9.30;99.90;;;;;;5009798;28;20401;-69
2023/11/02 00:45:50;;;;;;;4.40;0.70;;;9.40;99.90;;;;;;5009436;28;20385;-69
2023/11/02 00:48:31;;;;;;;4.78;1.02;;;9.40;99.90;;;;;;5009604;28;20420;-69
2023/11/02 00:51:20;;;;;;;4.07;0.60;;;9.30;99.90;;;;;;5008417;28;20397;-69
2023/11/02 00:53:50;;;;;;;5.30;0.63;;;9.30;99.90;;;;;;4988229;28;20503;-69
2023/11/02 00:56:16;;;;;;;4.85;0.70;;;9.30;99.90;;;;;;4989870;28;20878;-69
2023/11/02 00:58:53;;;;;;;5.10;1.00;;;9.40;99.90;;;;;;4989477;28;20398;-69
2023/11/02 01:01:21;;;;;;;4.50;0.60;;;9.40;99.90;;;;;;4989741;28;20911;-69
2023/11/02 01:03:49;;;;;;;4.60;0.60;;;9.50;99.90;;;;;;4989668;28;20448;-69
2023/11/02 01:06:19;;;;;;;4.05;0.60;;;9.50;99.90;;;;;;4988603;28;20397;-69
2023/11/02 01:08:52;;;;;;;6.32;0.88;;;9.50;99.90;;;;;;4989499;28;20460;-70
2023/11/02 01:11:18;;;;;;;4.20;0.73;;;9.50;99.90;;;;;;4991207;28;20497;-69
2023/11/02 01:13:44;;;;;;;6.70;0.80;;;9.50;99.90;;;;;;5009252;28;20943;-69
2023/11/02 01:16:10;;;;;;;4.50;1.03;;;9.60;99.90;;;;;;5009074;28;20392;-69
2023/11/02 01:18:41;;;;;;;4.70;0.73;;;9.50;99.90;;;;;;5008842;28;20405;-69
2023/11/02 01:21:07;;;;;;;4.10;0.70;;;9.50;99.90;;;;;;5009085;28;20407;-69
2023/11/02 01:23:34;;;;;;;4.73;0.73;;;9.50;99.90;;;;;;5008746;28;20400;-69
2023/11/02 01:26:04;;;;;;;4.80;1.07;;;9.50;99.90;;;;;;5007749;28;20408;-69
2023/11/02 01:28:51;;;;;;;4.80;1.00;;;9.50;99.90;;;;;;5008740;28;20400;-69
2023/11/02 01:31:19;;;;;;;4.30;0.82;;;9.50;99.90;;;;;;5008584;28;21011;-69
2023/11/02 01:34:00;;;;;;;4.70;1.40;;;9.50;99.90;;;;;;5008894;28;20797;-69
2023/11/02 01:36:30;;;;;;;4.60;1.30;;;9.60;99.90;;;;;;5011000;28;20476;-70
2023/11/02 01:39:08;;;;;;;4.20;0.70;;;9.70;99.90;;;;;;5007736;28;20418;-70
2023/11/02 01:41:50;;;;;;;4.20;0.65;;;9.70;99.90;;;;;;4993153;28;20418;-69
2023/11/02 01:44:23;;;;;;;4.13;0.60;;;9.70;99.90;;;;;;4993065;28;20838;-69
2023/11/02 01:47:20;;;;;;;4.30;0.80;;;9.80;99.90;;;;;;4993027;28;20420;-69
2023/11/02 01:49:48;;;;;;;4.10;0.60;;;9.90;99.90;;;;;;4992612;28;20944;-69
2023/11/02 01:52:46;;;;;;;5.10;0.80;;;9.80;99.90;;;;;;4991842;28;20481;-70
2023/11/02 01:55:11;;;;;;;4.30;0.70;;;9.80;99.90;;;;;;4992795;28;20541;-70
2023/11/02 01:57:49;;;;;;;4.70;1.00;;;9.80;99.90;;;;;;5007263;28;20484;-70
2023/11/02 02:00:16;;;;;;;4.20;0.60;;;9.90;99.90;;;;;;5012537;28;20531;-69
2023/11/02 02:02:44;;;;;;;4.30;0.90;;;9.90;99.90;;;;;;5012540;28;20420;-69
2023/11/02 02:05:17;;;;;;;4.28;0.55;;;9.90;99.90;;;;;;5012129;28;20416;-69
2023/11/02 02:07:46;;;;;;;4.20;0.60;;;9.90;99.90;;;;;;5012318;28;20408;-70
2023/11/02 02:10:15;;;;;;;6.20;0.90;;;10.00;99.90;;;;;;4998355;28;20406;-70
2023/11/02 02:13:12;;;;;;;4.00;0.60;;;10.00;99.90;;;;;;4992555;28;20494;-70
2023/11/02 02:16:11;;;;;;;4.95;0.82;;;10.10;99.90;;;;;;4992921;28;20422;-69
2023/11/02 02:18:50;;;;;;;4.20;0.70;;;10.00;99.90;;;;;;4997984;28;20393;-69
2023/11/02 02:21:30;;;;;;;4.80;0.80;;;10.00;99.90;;;;;;5011544;28;20408;-70
2023/11/02 02:24:11;;;;;;;4.40;0.75;;;10.00;99.90;;;;;;5012516;28;20428;-70
2023/11/02 02:26:42;;;;;;;4.80;0.80;;;9.90;99.90;;;;;;5010349;28;20400;-70
2023/11/02 02:29:37;;;;;;;4.50;0.80;;;9.90;99.90;;;;;;5007755;28;20564;-70
2023/11/02 02:32:24;;;;;;;5.00;1.00;;;9.90;99.90;;;;;;4991978;28;20405;-70
2023/11/02 02:35:04;;;;;;;4.70;0.90;;;10.00;99.90;;;;;;4991557;28;20924;-70
2023/11/02 02:37:44;;;;;;;4.35;0.80;;;10.00;99.90;;;;;;4995455;28;20487;-70
2023/11/02 02:40:17;;;;;;;4.40;0.65;;;10.00;99.90;;;;;;5010234;28;20401;-69
2023/11/02 02:42:47;;;;;;;4.10;0.63;;;9.90;99.90;;;;;;5010019;28;20393;-69
2023/11/02 02:45:13;;;;;;;5.30;0.80;;;9.90;99.90;;;;;;5009800;28;20404;-69
2023/11/02 02:47:41;;;;;;;4.70;0.90;;;10.00;99.90;;;;;;5008547;28;20420;-69
2023/11/02 02:50:12;;;;;;;4.90;0.70;;;10.00;99.90;;;;;;5002486;28;20489;-70
2023/11/02 02:52:40;;;;;;;4.20;0.70;;;10.00;99.90;;;;;;4991094;28;20419;-69
2023/11/02 02:55:08;;;;;;;4.30;0.70;;;9.90;99.90;;;;;;4992109;28;20474;-69
2023/11/02 02:57:38;;;;;;;4.40;0.60;;;10.00;99.90;;;;;;4995739;28;20412;-70
2023/11/02 03:00:06;;;;;;;4.40;0.63;;;10.00;99.90;;;;;;5011547;28;20409;-70
2023/11/02 03:02:34;;;;;;;5.50;1.00;;;10.00;99.90;;;;;;5019881;28;20389;-68
2023/11/02 03:05:01;;;;;;;4.35;0.90;;;10.00;99.90;;;;;;5021115;28;20421;-69
2023/11/02 03:07:31;;;;;;;4.80;0.70;;;9.90;99.90;;;;;;5007904;28;20812;-69
2023/11/02 03:10:00;;;;;;;7.10;0.80;;;9.90;99.90;;;;;;4992415;28;20410;-70
2023/11/02 03:12:28;;;;;;;6.00;1.10;;;9.90;99.90;;;;;;4991594;28;20449;-69
2023/11/02 03:14:59;;;;;;;4.45;0.90;;;9.90;99.90;;;;;;4992066;28;20446;-69
2023/11/02 03:17:55;;;;;;;4.90;0.80;;;10.00;99.90;;;;;;5007956;28;20736;-69
2023/11/02 03:20:22;;;;;;;5.10;0.88;;;10.00;99.90;;;;;;5011157;28;20411;-69
2023/11/02 03:22:48;;;;;;;5.00;1.30;;;10.00;99.90;;;;;;5003767;28;20545;-69
2023/11/02 03:25:25;;;;;;;4.90;0.90;;;10.10;99.90;;;;;;4999840;28;20408;-69
2023/11/02 03:27:57;;;;;;;5.20;1.00;;;10.20;99.90;;;;;;4999500;28;20433;-69
2023/11/02 03:30:31;;;;;;;5.53;0.82;;;10.20;99.90;;;;;;5000057;28;20444;-69
2023/11/02 03:33:15;;;;;;;5.00;0.90;;;10.30;99.90;;;;;;4999362;28;20426;-70
2023/11/02 03:35:56;;;;;;;4.10;0.60;;;10.30;99.90;;;;;;4999255;28;20444;-70
2023/11/02 03:38:48;;;;;;;5.20;0.90;;;10.20;99.90;;;;;;5001531;28;20796;-70
2023/11/02 03:41:16;;;;;;;5.20;0.70;;;10.20;99.90;;;;;;5000245;28;20750;-69
2023/11/02 03:44:07;;;;;;;4.00;0.60;;;10.10;99.90;;;;;;5001222;28;20492;-69
2023/11/02 03:47:08;;;;;;;5.20;0.80;;;10.10;99.90;;;;;;5000340;28;20407;-70
2023/11/02 03:49:48;;;;;;;4.30;0.60;;;10.10;99.90;;;;;;5002162;28;20408;-69
2023/11/02 03:52:41;;;;;;;4.90;1.00;;;10.10;99.90;;;;;;5000853;28;20389;-69
2023/11/02 03:55:29;;;;;;;4.70;0.70;;;10.00;99.90;;;;;;5001330;28;20475;-70
2023/11/02 03:58:17;;;;;;;3.90;0.57;;;10.00;99.90;;;;;;5001715;28;20459;-70
2023/11/02 04:00:56;;;;;;;4.00;0.63;;;9.90;99.90;;;;;;5001014;28;20896;-69
2023/11/02 04:03:27;;;;;;;5.00;0.80;;;9.80;99.90;;;;;;4999462;28;20828;-70
2023/11/02 04:05:57;;;;;;;4.28;0.77;;;9.70;1.00;;;;;;4999252;28;20411;-69
2023/11/02 04:08:26;;;;;;;4.32;0.93;;;9.70;1.00;;;;;;5000733;28;20764;-69
2023/11/02 04:11:28;;;;;;;3.97;0.77;;;9.70;1.00;;;;;;4999165;28;20901;-69
2023/11/02 04:14:15;;;;;;;4.90;1.08;;;9.60;1.00;;;;;;4999416;28;20421;-70
2023/11/02 04:16:41;;;;;;;4.28;0.95;;;9.60;1.00;;;;;;5000818;28;20914;-69
2023/11/02 04:19:07;;;;;;;5.30;0.70;;;9.50;1.00;;;;;;4999711;28;20400;-70
2023/11/02 04:21:33;;;;;;;4.60;0.90;;;9.60;1.00;;;;;;5000161;28;20452;-69
2023/11/02 04:23:59;;;;;;;4.00;0.70;;;9.50;1.00;;;;;;4998557;28;20402;-70
2023/11/02 04:26:26;;;;;;;5.50;1.10;;;9.50;1.00;;;;;;5000679;28;20389;-70
2023/11/02 04:28:51;;;;;;;3.90;0.70;;;9.50;1.00;;;;;;4999513;28;20875;-69
2023/11/02 04:31:17;;;;;;;4.10;0.70;;;9.60;1.00;;;;;;4998416;28;20405;-70
2023/11/02 04:33:43;;;;;;;3.80;0.57;;;9.60;1.00;;;;;;5000706;28;20468;-70
2023/11/02 04:36:09;;;;;;;3.88;0.70;;;9.60;1.00;;;;;;4999051;28;20574;-70
2023/11/02 04:38:35;;;;;;;4.70;0.90;;;9.70;1.00;;;;;;4998710;28;20492;-70
2023/11/02 04:41:00;;;;;;;4.30;0.70;;;9.70;1.00;;;;;;4990574;28;20833;-70
2023/11/02 04:43:26;;;;;;;3.80;0.60;;;9.80;1.00;;;;;;5001339;28;20828;-70
2023/11/02 04:45:52;;;;;;;5.43;0.75;;;9.70;1.00;;;;;;5009819;28;20475;-70
2023/11/02 04:48:17;;;;;;;4.27;0.90;;;9.70;1.00;;;;;;5005849;28;20938;-70
2023/11/02 04:50:43;;;;;;;4.50;0.97;;;9.80;1.00;;;;;;5007873;28;20828;-70
2023/11/02 04:53:09;;;;;;;3.77;0.43;;;9.80;1.00;;;;;;5008254;28;20428;-70
2023/11/02 04:55:35;;;;;;;6.07;0.90;;;9.90;1.00;;;;;;4993263;28;20916;-71
2023/11/02 04:58:02;;;;;;;4.10;0.60;;;9.90;1.00;;;;;;5001580;28;20421;-70
2023/11/02 05:00:27;;;;;;;4.40;0.77;;;9.90;1.00;;;;;;5007999;28;20442;-70
2023/11/02 05:02:53;;;;;;;3.70;0.50;;;9.90;1.00;;;;;;5008986;28;20421;-69
2023/11/02 05:05:19;;;;;;;4.80;0.90;;;10.00;1.00;;;;;;5006951;28;20418;-70
2023/11/02 05:07:44;;;;;;;4.10;0.80;;;10.00;1.00;;;;;;4999103;28;20404;-70
2023/11/02 05:10:10;;;;;;;4.03;0.70;;;10.10;1.00;;;;;;5007432;28;20409;-70
2023/11/02 05:12:35;;;;;;;5.40;1.40;;;10.00;1.00;;;;;;5008919;28;20404;-70
2023/11/02 05:15:02;;;;;;;4.40;0.55;;;10.10;1.00;;;;;;5014421;28;20740;-70
2023/11/02 05:17:27;;;;;;;4.07;0.70;;;10.10;1.00;;;;;;5003929;28;20450;-70
2023/11/02 05:19:53;;;;;;;4.20;0.80;;;10.20;1.00;;;;;;5007409;28;20471;-70
2023/11/02 05:22:18;;;;;;;4.80;0.90;;;10.20;1.00;;;;;;5015824;28;20436;-70
2023/11/02 05:24:44;;;;;;;4.20;0.80;;;10.20;1.00;;;;;;5012724;28;20435;-69
2023/11/02 05:27:09;;;;;;;4.03;0.60;;;10.10;1.00;;;;;;5013680;28;20455;-69
2023/11/02 05:29:35;;;;;;;4.40;0.60;;;10.20;99.90;;;;;;5009695;28;20443;-70
2023/11/02 05:32:00;;;;;;;5.17;1.30;;;10.20;99.90;;;;;;5011410;28;20416;-68
2023/11/02 05:34:26;;;;;;;4.40;0.80;;;10.20;99.90;;;;;;5014513;28;20427;-69
2023/11/02 05:36:51;;;;;;;4.33;0.80;;;10.20;99.90;;;;;;5013884;28;20910;-69
2023/11/02 05:39:17;;;;;;;4.70;1.30;;;10.20;99.90;;;;;;5014329;28;20856;-68
2023/11/02 05:41:42;;;;;;;5.60;0.80;;;10.40;99.90;;;;;;5013725;28;20412;-68
2023/11/02 05:44:08;;;;;;;4.00;0.70;;;10.40;99.90;;;;;;5000046;28;20417;-69
2023/11/02 05:46:35;;;;;;;4.10;0.93;;;10.40;99.90;;;;;;5008539;28;20419;-69
2023/11/02 05:49:00;;;;;;;4.20;0.80;;;10.50;99.90;;;;;;5015953;28;20454;-68
2023/11/02 05:51:26;;;;;;;5.00;1.00;;;10.50;99.90;;;;;;5017614;28;20405;-68
2023/11/02 05:53:51;;;;;;;4.10;0.70;;;10.50;99.90;;;;;;5009405;28;20454;-69
2023/11/02 05:56:17;;;;;;;4.00;0.63;;;10.50;99.90;;;;;;4997220;28;20426;-69
2023/11/02 05:58:43;;;;;;;7.28;1.02;;;10.30;99.90;;;;;;5013182;28;20415;-69
2023/11/02 06:01:09;;;;;;;4.60;1.00;;;10.30;99.90;;;;;;5011759;28;20392;-69
2023/11/02 06:03:34;;;;;;;5.97;1.20;;;10.40;99.90;;;;;;5014914;28;20442;-70
2023/11/02 06:06:00;;;;;;;5.00;1.10;;;10.50;99.90;;;;;;5014205;28;20412;-69
2023/11/02 06:08:25;;;;;;;4.20;0.80;;;10.60;99.90;;;;;;5006145;28;20407;-70
2023/11/02 06:10:51;;;;;;;4.97;1.30;;;10.70;99.90;;;;;;5003797;28;20720;-70
2023/11/02 06:13:17;;;;;;;5.77;1.60;;;10.80;99.90;;;;;;5002093;28;20612;-69
2023/11/02 06:15:42;;;;;;;4.68;0.95;;;10.80;99.90;;;;;;4996419;28;21021;-68
2023/11/02 06:18:08;;;;;;;4.70;1.00;;;10.50;99.90;;;;;;5007675;28;20845;-69
2023/11/02 06:20:33;;;;;;;4.17;0.60;;;10.40;99.90;;;;;;5010739;28;20412;-69
2023/11/02 06:23:01;;;;;;;5.20;0.90;;;10.50;99.90;;;;;;5003833;28;20425;-69
2023/11/02 06:25:27;;;;;;;3.97;0.53;;;10.70;99.90;;;;;;4992727;28;20904;-69
2023/11/02 06:27:53;;;;;;;3.80;0.43;;;10.80;99.90;;;;;;4996806;28;20502;-68
2023/11/02 06:30:19;;;;;;;4.40;0.80;;;10.90;99.90;;;;;;5009484;28;20440;-68
2023/11/02 06:32:45;;;;;;;5.00;1.00;;;11.10;99.90;;;;;;5003383;28;20425;-69
2023/11/02 06:35:10;;;;;;;4.60;0.90;;;11.10;99.90;;;;;;5007216;28;20459;-69
2023/11/02 06:37:59;;;;;;;6.20;1.00;;;11.30;99.90;;;;;;5010365;28;20404;-69
2023/11/02 06:40:26;;;;;;;12.68;4.03;;;11.40;99.90;;;;;;5003093;28;20394;-69
2023/11/02 06:42:52;;;;;;;5.10;0.90;;;11.50;99.90;;;;;;4991679;28;20434;-70
2023/11/02 06:45:18;;;;;;;4.95;1.27;;;11.30;99.90;;;;;;4991365;28;20944;-69
2023/11/02 06:47:44;;;;;;;5.65;0.82;;;11.40;99.90;;;;;;4990903;28;20435;-70
2023/11/02 06:50:10;;;;;;;4.10;0.60;;;11.40;99.90;;;;;;4990697;28;20406;-69
2023/11/02 06:52:35;;;;;;;4.30;1.00;;;11.40;99.90;;;;;;5000736;28;20459;-69
2023/11/02 06:55:01;;;;;;;5.05;1.30;;;11.30;99.90;;;;;;5011528;28;20885;-70
2023/11/02 06:57:27;;;;;;;7.90;1.60;;;11.30;99.90;;;;;;5011576;28;20389;-69
2023/11/02 06:59:53;;;;;;;6.60;1.20;;;11.30;99.90;;;;;;5012073;28;20408;-69
2023/11/02 07:02:21;;;;;;;6.13;1.45;;;11.20;99.90;;;;;;5000725;28;20445;-69
2023/11/02 07:04:48;;;;;;;7.10;1.48;;;11.10;99.90;;;;;;5002423;28;20411;-69
2023/11/02 07:07:14;;;;;;;4.53;1.17;;;11.10;99.90;;;;;;5005078;28;20773;-69
2023/11/02 07:09:40;;;;;;;5.20;0.80;;;11.00;99.90;;;;;;5000777;28;20405;-69
2023/11/02 07:12:05;;;;;;;4.40;1.00;;;11.00;1.00;;;;;;5000245;28;20389;-69
2023/11/02 07:14:31;;;;;;;4.22;0.60;;;10.90;1.00;;;;;;5003909;28;20426;-69
2023/11/02 07:16:57;;;;;;;4.23;0.77;;;10.80;1.00;;;;;;5006860;28;20443;-69
2023/11/02 07:19:22;;;;;;;10.63;0.97;;;10.70;1.00;;;;;;5011711;28;20761;-69
2023/11/02 07:21:48;;;;;;;4.03;0.60;;;10.70;1.00;;;;;;5009511;28;20471;-70
2023/11/02 07:24:13;;;;;;;4.60;0.80;;;10.60;1.00;;;;;;4991339;28;20389;-69
2023/11/02 07:26:39;;;;;;;4.00;0.60;;;10.50;1.00;;;;;;4991835;28;20993;-69
2023/11/02 07:29:05;;;;;;;4.80;1.05;;;10.40;1.00;;;;;;4991737;28;20399;-69
2023/11/02 07:31:30;;;;;;;3.80;0.80;;;10.40;1.00;;;;;;5009539;28;20400;-70
2023/11/02 07:33:56;;;;;;;4.30;0.53;;;10.30;1.00;;;;;;4997330;28;20442;-69
2023/11/02 07:36:21;;;;;;;3.90;0.60;;;10.30;99.90;;;;;;4991503;28;20382;-69
2023/11/02 07:38:47;;;;;;;7.40;1.40;;;10.40;99.90;;;;;;4991384;28;20401;-70
2023/11/02 07:41:13;;;;;;;4.03;1.00;;;10.30;99.90;;;;;;4991650;28;20398;-71
2023/11/02 07:43:38;;;;;;;4.90;1.00;;;10.20;1.00;;;;;;4991245;28;20405;-70
2023/11/02 07:46:06;;;;;;;4.78;1.48;;;10.10;1.00;;;;;;4997970;28;20397;-70
2023/11/02 07:48:31;;;;;;;4.10;0.90;;;10.00;1.00;;;;;;4999813;28;20418;-71
2023/11/02 07:50:57;;;;;;;5.20;1.20;;;10.00;1.00;;;;;;4991398;28;20814;-70
2023/11/02 07:53:23;;;;;;;4.72;1.63;;;9.90;99.90;;;;;;4990282;28;20433;-70
2023/11/02 07:55:48;;;;;;;4.17;0.80;;;9.80;99.90;;;;;;4991266;28;20399;-71
2023/11/02 07:58:14;;;;;;;4.18;1.00;;;9.80;1.00;;;;;;4991368;28;20389;-71
2023/11/02 08:00:40;;;;;;;4.07;0.73;;;9.90;1.00;;;;;;4990932;28;20390;-70
2023/11/02 08:03:05;;;;;;;5.47;1.20;;;10.00;99.90;;;;;;4991129;28;20424;-71
2023/11/02 08:05:31;;;;;;;4.30;1.08;;;10.00;1.00;;;;;;4990101;28;20395;-71
2023/11/02 08:07:56;;;;;;;4.80;0.87;;;10.00;1.00;;;;;;4991538;28;20416;-70
2023/11/02 08:10:22;;;;;;;4.10;0.97;;;10.10;1.00;;;;;;4991368;28;20387;-71
2023/11/02 08:12:47;;;;;;;4.78;0.90;;;10.10;99.90;;;;;;4990878;28;20422;-71
2023/11/02 08:15:13;;;;;;;4.83;0.87;;;10.20;99.90;;;;;;4991883;28;20398;-71
2023/11/02 08:17:41;;;;;;;3.83;0.60;;;10.10;99.90;;;;;;5010228;28;20443;-71
2023/11/02 08:20:09;;;;;;;3.90;0.73;;;10.00;1.00;;;;;;5010550;28;20389;-71
2023/11/02 08:22:35;;;;;;;3.90;0.50;;;10.00;1.00;;;;;;4999705;28;20394;-71
2023/11/02 08:25:01;;;;;;;5.33;1.30;;;10.00;1.00;;;;;;4992624;28;20770;-71
2023/11/02 08:27:28;;;;;;;5.00;1.20;;;10.00;1.00;;;;;;5005952;28;20421;-71
2023/11/02 08:29:53;;;;;;;4.82;0.95;;;10.00;1.00;;;;;;4993299;28;20887;-71
2023/11/02 08:32:19;;;;;;;3.70;0.57;;;10.00;99.90;;;;;;4997590;28;20408;-71
2023/11/02 08:34:45;;;;;;;4.80;1.08;;;10.00;99.90;;;;;;5009889;28;20421;-71
2023/11/02 08:37:13;;;;;;;4.10;0.80;;;10.10;99.90;;;;;;5010175;28;20401;-70
2023/11/02 08:39:39;;;;;;;5.88;1.00;;;10.10;52.50;;;;;;5010055;28;20397;-71
2023/11/02 08:42:06;;;;;;;3.97;0.95;;;10.10;1.00;;;;;;5010467;28;20401;-71
2023/11/02 08:44:31;;;;;;;4.38;1.40;;;10.10;1.00;;;;;;5009081;28;20408;-71
2023/11/02 08:46:57;;;;;;;6.30;1.10;;;10.20;1.00;;;;;;4993560;28;20391;-70
2023/11/02 08:49:22;;;;;;;5.88;1.45;;;10.40;1.00;;;;;;4991466;28;20409;-71
2023/11/02 08:51:48;;;;;;;4.18;0.93;;;10.40;1.00;;;;;;4990655;28;20475;-70
2023/11/02 08:54:15;;;;;;;4.10;1.20;;;10.50;99.90;;;;;;4991983;28;20426;-71
2023/11/02 08:56:42;;;;;;;5.00;1.13;;;10.60;99.90;;;;;;4989986;28;20434;-71
2023/11/02 08:59:07;;;;;;;4.88;1.17;;;10.60;99.90;;;;;;4990535;28;20875;-71
2023/11/02 09:01:33;;;;;;;4.40;1.30;;;10.50;99.90;;;;;;4989439;28;20497;-70
2023/11/02 09:03:59;;;;;;;5.38;1.10;;;10.50;99.90;;;;;;5007775;28;20479;-70
2023/11/02 09:06:25;;;;;;;4.60;0.90;;;10.50;99.90;;;;;;5006442;28;20440;-71
2023/11/02 09:08:53;;;;;;;6.47;1.73;;;10.50;99.90;;;;;;4988787;28;20407;-70
2023/11/02 09:11:19;;;;;;;4.70;1.08;;;10.50;1.00;;;;;;4993746;28;20441;-71
2023/11/02 09:13:45;;;;;;;5.97;1.53;;;10.50;1.00;;;;;;4993504;28;20434;-70
2023/11/02 09:16:11;;;;;;;6.40;0.90;;;10.50;1.00;;;;;;4993286;28;20495;-71
2023/11/02 09:18:38;;;;;;;4.80;0.90;;;10.50;1.00;;;;;;4999532;28;20438;-70
2023/11/02 09:21:04;;;;;;;4.80;0.95;;;10.60;1.00;;;;;;4996972;28;20399;-71
2023/11/02 09:23:31;;;;;;;3.65;0.80;;;10.70;1.00;;;;;;5013054;28;20409;-70
2023/11/02 09:25:57;;;;;;;4.95;0.85;;;10.80;1.00;;;;;;4998511;28;20426;-70
2023/11/02 09:28:22;;;;;;;4.17;0.90;;;10.90;99.90;;;;;;4990170;28;20504;-69
2023/11/02 09:30:48;;;;;;;4.23;1.10;;;11.00;99.90;;;;;;5003749;28;21037;-69
2023/11/02 09:33:13;;;;;;;4.35;1.00;;;11.00;99.90;;;;;;5017027;28;20429;-69
2023/11/02 09:35:39;;;;;;;5.30;1.02;;;11.00;99.90;;;;;;4997094;28;20501;-69
2023/11/02 09:38:06;;;;;;;4.00;0.80;;;11.00;99.90;;;;;;4989310;28;20418;-70
2023/11/02 09:40:32;;;;;;;4.50;1.00;;;11.00;93.50;;;;;;4986324;28;20466;-69
2023/11/02 09:43:02;;;;;;;5.25;0.90;;;11.10;99.90;;;;;;4986797;28;20410;-69
2023/11/02 09:45:31;;;;;;;4.30;0.90;;;11.10;99.90;;;;;;5008181;28;20891;-70
2023/11/02 09:48:01;;;;;;;3.75;0.70;;;11.10;43.90;;;;;;5010017;28;20422;-68
2023/11/02 09:50:27;;;;;;;4.00;0.70;;;11.20;99.90;;;;;;5009874;28;20530;-70
2023/11/02 09:52:54;;;;;;;4.50;1.40;;;11.20;99.90;;;;;;4997593;28;20461;-70
2023/11/02 09:55:20;;;;;;;4.32;0.70;;;11.30;99.90;;;;;;4990334;28;20915;-70
2023/11/02 09:57:48;;;;;;;3.90;0.70;;;11.30;77.80;;;;;;4991655;28;20474;-70
2023/11/02 10:00:17;;;;;;;4.50;0.80;;;11.30;49.70;;;;;;4994134;28;20872;-70
2023/11/02 10:02:45;;;;;;;4.60;0.70;;;11.30;1.00;;;;;;4992436;28;20906;-70
2023/11/02 10:05:11;;;;;;;4.38;1.00;;;11.30;1.00;;;;;;4994543;28;20399;-79
2023/11/02 10:07:36;;;;;;;3.60;0.60;;;11.30;78.30;;;;;;4993883;28;20429;-70
2023/11/02 10:10:13;;;;;;;4.40;0.60;;;11.40;42.30;;;;;;4995085;28;20412;-73
2023/11/02 10:12:40;;;;;;;4.97;0.70;;;11.30;1.00;;;;;;4999514;28;20491;-72
2023/11/02 10:15:08;;;;;;;3.60;0.60;;;11.40;68.10;;;;;;5011878;28;20757;-69
2023/11/02 10:17:40;;;;;;;3.90;0.50;;;11.50;38.10;;;;;;4994132;28;20414;-69
2023/11/02 10:20:12;;;;;;;3.90;0.63;;;11.60;22.50;;;;;;4993507;28;20382;-69
2023/11/02 10:22:37;;;;;;;4.10;0.60;;;11.60;1.00;;;;;;5003975;28;20404;-69
2023/11/02 10:25:04;;;;;;;4.30;0.80;;;11.60;16.50;;;;;;5013572;28;20405;-69
2023/11/02 10:27:30;;;;;;;4.07;0.52;;;11.70;35.90;;;;;;5007323;28;20443;-69
2023/11/02 10:29:57;;;;;;;3.63;0.50;;;11.70;1.00;;;;;;5013337;28;20496;-71
2023/11/02 10:32:23;;;;;;;3.50;0.40;;;11.70;1.00;;;;;;5003718;28;20454;-69
2023/11/02 10:34:51;;;;;;;3.80;0.50;;;11.70;1.00;;;;;;4996622;28;20450;-69
2023/11/02 10:37:31;;;;;;;4.55;0.50;;;11.70;1.00;;;;;;4991769;28;20399;-69
2023/11/02 10:39:57;;;;;;;5.40;0.93;;;11.70;12.60;;;;;;5003892;28;20408;-70
2023/11/02 10:42:25;;;;;;;3.70;0.70;;;11.80;3.30;;;;;;5001278;28;20429;-69
2023/11/02 10:44:51;;;;;;;3.80;0.60;;;11.90;1.00;;;;;;5005477;28;20405;-69
2023/11/02 10:47:19;;;;;;;4.60;0.50;;;11.90;1.00;;;;;;4999050;28;20501;-69
2023/11/02 10:49:50;;;;;;;3.70;0.40;;;11.90;1.00;;;;;;4992537;28;20403;-69
2023/11/02 10:52:27;;;;;;;5.90;0.80;;;11.90;1.00;;;;;;4996312;28;20802;-69
2023/11/02 10:55:07;;;;;;;3.80;0.60;;;12.10;1.00;;;;;;4996837;28;20843;-69
2023/11/02 10:57:35;;;;;;;3.60;0.50;;;12.00;1.00;;;;;;5004556;28;20408;-69
2023/11/02 11:00:04;;;;;;;4.00;0.40;;;12.00;1.00;;;;;;5010330;28;20405;-69
2023/11/02 11:02:31;;;;;;;4.50;0.70;;;12.00;1.00;;;;;;5012418;28;20380;-70
2023/11/02 11:04:59;;;;;;;4.20;0.50;;;12.00;1.00;;;;;;5012253;28;20429;-70
2023/11/02 11:07:25;;;;;;;3.80;0.70;;;11.90;1.00;;;;;;5000022;28;20418;-70
2023/11/02 11:09:51;;;;;;;5.10;0.60;;;11.90;1.00;;;;;;5002314;28;20396;-70
2023/11/02 11:12:20;;;;;;;4.10;0.60;;;11.90;1.00;;;;;;5011963;28;20399;-70
2023/11/02 11:14:47;;;;;;;4.15;0.60;;;12.00;1.00;;;;;;5017732;28;20545;-70
2023/11/02 11:17:14;;;;;;;3.50;0.30;;;12.00;1.00;;;;;;4999227;28;20446;-69
2023/11/02 11:19:40;;;;;;;3.97;0.40;;;11.90;1.00;;;;;;4996374;28;20414;-70
2023/11/02 11:22:17;;;;;;;4.45;0.50;;;11.90;1.00;;;;;;4992898;28;20402;-70
2023/11/02 11:24:53;;;;;;;3.60;0.30;;;12.10;1.00;;;;;;4992426;28;20408;-70
2023/11/02 11:27:30;;;;;;;3.90;0.50;;;12.20;1.00;;;;;;4991980;28;20407;-70
2023/11/02 11:29:55;;;;;;;3.80;0.40;;;12.20;1.00;;;;;;4991984;28;20440;-70
2023/11/02 11:32:24;;;;;;;4.10;0.50;;;12.20;1.00;;;;;;4991485;28;20418;-70
2023/11/02 11:35:04;;;;;;;3.90;0.50;;;12.00;1.00;;;;;;4992054;28;20421;-70
2023/11/02 11:37:57;;;;;;;3.60;0.30;;;12.00;1.00;;;;;;4992845;28;20496;-70
2023/11/02 11:40:29;;;;;;;4.30;0.80;;;11.90;1.00;;;;;;4992064;28;20394;-70
2023/11/02 11:43:05;;;;;;;3.70;0.40;;;11.90;1.00;;;;;;4992160;28;20530;-70
2023/11/02 11:46:00;;;;;;;3.70;0.50;;;12.00;1.00;;;;;;4998645;28;20955;-70
2023/11/02 11:48:35;;;;;;;3.70;0.40;;;12.10;1.00;;;;;;5002427;28;20458;-70
2023/11/02 11:51:22;;;;;;;3.60;0.30;;;12.10;1.00;;;;;;4998165;28;20429;-71
2023/11/02 11:54:10;;;;;;;3.80;0.60;;;12.10;1.00;;;;;;4991659;28;20488;-70
2023/11/02 11:56:37;;;;;;;6.10;0.65;;;12.10;1.00;;;;;;5002517;28;20501;-70
2023/11/02 11:59:02;;;;;;;4.10;0.60;;;12.20;1.00;;;;;;5001039;28;20742;-70
2023/11/02 12:01:29;;;;;;;4.70;0.80;;;12.10;1.00;;;;;;5009130;28;20412;-69
2023/11/02 12:03:57;;;;;;;3.70;0.40;;;12.10;1.00;;;;;;5010739;28;20393;-69
2023/11/02 12:06:47;;;;;;;3.60;0.35;;;12.20;1.00;;;;;;5010565;28;20400;-69
2023/11/02 12:09:13;;;;;;;3.60;0.30;;;12.10;1.00;;;;;;5009753;28;20901;-70
2023/11/02 12:11:44;;;;;;;3.95;0.30;;;12.10;1.00;;;;;;5007590;28;20409;-69
2023/11/02 12:14:14;;;;;;;4.00;0.50;;;12.00;1.00;;;;;;5010202;28;20920;-69
2023/11/02 12:16:43;;;;;;;3.90;0.50;;;12.10;1.00;;;;;;4999690;28;20760;-69
2023/11/02 12:19:10;;;;;;;4.60;0.60;;;12.10;1.00;;;;;;5000196;28;20508;-69
2023/11/02 12:21:38;;;;;;;4.10;0.40;;;12.20;1.00;;;;;;4994704;28;20478;-69
2023/11/02 12:24:13;;;;;;;5.90;0.60;;;12.20;1.00;;;;;;4992112;28;20407;-69
2023/11/02 12:26:40;;;;;;;4.00;0.50;;;12.00;1.00;;;;;;5010904;28;20396;-70
2023/11/02 12:29:10;;;;;;;3.60;0.30;;;12.00;1.00;;;;;;5003654;28;20444;-70
2023/11/02 12:31:38;;;;;;;3.60;0.22;;;12.00;1.00;;;;;;5004957;28;20422;-70
2023/11/02 12:34:11;;;;;;;4.15;0.40;;;12.00;1.00;;;;;;4989665;28;20434;-69
2023/11/02 12:36:42;;;;;;;3.90;0.50;;;12.00;1.00;;;;;;4999829;28;20412;-69
2023/11/02 12:39:10;;;;;;;4.30;0.57;;;12.10;1.00;;;;;;4991031;28;20453;-69
2023/11/02 12:41:37;;;;;;;3.70;0.40;;;12.20;1.00;;;;;;5002173;28;20409;-70
2023/11/02 12:44:11;;;;;;;4.07;0.50;;;12.20;1.00;;;;;;5009832;28;20930;-70
2023/11/02 12:46:44;;;;;;;3.60;0.22;;;12.10;1.00;;;;;;4996769;28;20468;-69
2023/11/02 12:49:17;;;;;;;3.90;0.35;;;11.90;1.00;;;;;;5007643;28;20388;-69
2023/11/02 12:51:45;;;;;;;4.70;0.90;;;11.90;1.00;;;;;;5007948;28;20399;-68
2023/11/02 12:54:14;;;;;;;4.20;0.52;;;12.10;1.00;;;;;;5007731;28;20421;-70
2023/11/02 12:56:41;;;;;;;4.70;0.50;;;12.00;1.00;;;;;;5006654;28;20416;-69
2023/11/02 12:59:08;;;;;;;6.00;0.70;;;11.90;1.00;;;;;;5001720;28;20469;-70
2023/11/02 13:01:53;;;;;;;3.80;0.50;;;12.00;1.00;;;;;;4990139;28;20409;-69
2023/11/02 13:04:45;;;;;;;3.70;0.50;;;12.00;1.00;;;;;;4998687;28;20409;-70
2023/11/02 13:07:21;;;;;;;3.90;0.40;;;12.00;1.00;;;;;;4990981;28;20410;-69
2023/11/02 13:10:10;;;;;;;4.07;0.70;;;12.00;1.00;;;;;;5005557;28;20498;-70